Time;durP1;ratioP1;P1;durP2;ratioP2;P2;SDS_P1;SDS_P2;PMS_P1;PMS_P2;Temp;Humidity;BMP_temperature;BMP_pressure;BME280_temperature;BME280_humidity;BME280_pressure;Samples;Min_cycle;Max_cycle;Signal;HPM_P1;HPM_P2
2022/12/05 00:00:00;;;;;;;54.38;28.90;;;;;;;2.08;100.00;101704.84;1038929;28;20358;-80
2022/12/05 00:00:35;;;;;;;52.72;30.50;;;;;;;2.09;100.00;101704.72;1039477;28;20299;-79
2022/12/05 00:01:23;;;;;;;54.30;29.52;;;;;;;2.10;100.00;101706.38;1035158;28;20372;-80
2022/12/05 00:01:54;;;;;;;57.63;30.77;;;;;;;2.10;100.00;101706.38;1033589;28;20368;-80
2022/12/05 00:02:26;;;;;;;57.30;29.65;;;;;;;2.11;100.00;101700.16;1026336;28;20676;-80
2022/12/05 00:02:58;;;;;;;56.35;29.48;;;;;;;2.10;100.00;101701.13;1028612;28;20291;-79
2022/12/05 00:03:29;;;;;;;56.17;29.30;;;;;;;2.12;100.00;101703.59;1034470;28;20388;-80
2022/12/05 00:04:03;;;;;;;52.47;30.35;;;;;;;2.11;100.00;101708.03;1033768;28;20308;-80
2022/12/05 00:04:35;;;;;;;55.00;30.35;;;;;;;2.11;100.00;101702.78;1035243;28;20706;-79
2022/12/05 00:05:06;;;;;;;59.90;29.33;;;;;;;2.12;100.00;101706.22;1029500;28;20412;-80
2022/12/05 00:05:39;;;;;;;54.22;29.15;;;;;;;2.10;100.00;101701.13;1030710;28;20811;-80
2022/12/05 00:06:11;;;;;;;51.17;28.73;;;;;;;2.10;100.00;101706.38;1028081;28;20765;-80
2022/12/05 00:06:43;;;;;;;61.13;30.73;;;;;;;2.11;100.00;101710.66;1027205;28;20398;-80
2022/12/05 00:07:14;;;;;;;53.85;29.05;;;;;;;2.11;100.00;101713.28;1031211;28;20305;-80
2022/12/05 00:07:46;;;;;;;51.28;28.38;;;;;;;2.11;100.00;101709.84;1035141;28;20394;-80
2022/12/05 00:08:18;;;;;;;57.60;29.15;;;;;;;2.10;100.00;101703.75;1025938;28;20320;-80
2022/12/05 00:08:50;;;;;;;49.38;28.88;;;;;;;2.11;100.00;101707.22;1023024;28;20812;-80
2022/12/05 00:09:21;;;;;;;66.63;31.38;;;;;;;2.10;100.00;101709.00;1023726;28;20309;-80
2022/12/05 00:09:53;;;;;;;53.13;29.42;;;;;;;2.11;100.00;101705.41;1024469;28;20311;-79
2022/12/05 00:10:25;;;;;;;53.47;29.63;;;;;;;2.09;100.00;101702.09;1031650;28;20297;-80
2022/12/05 00:10:56;;;;;;;45.92;24.75;;;;;;;2.07;100.00;101698.78;1031295;28;20915;-80
2022/12/05 00:11:30;;;;;;;48.00;27.45;;;;;;;2.08;100.00;101705.69;1040306;28;20373;-79
2022/12/05 00:12:01;;;;;;;53.58;31.13;;;;;;;2.09;100.00;101704.72;1031783;28;20333;-80
2022/12/05 00:12:33;;;;;;;60.13;30.88;;;;;;;2.09;100.00;101709.97;1032174;28;20649;-80
2022/12/05 00:13:05;;;;;;;58.72;30.98;;;;;;;2.11;100.00;101713.28;1027488;28;20296;-80
2022/12/05 00:13:39;;;;;;;54.20;29.58;;;;;;;2.11;100.00;101700.16;1027438;28;20400;-79
2022/12/05 00:14:12;;;;;;;60.47;30.58;;;;;;;2.11;100.00;101702.78;1032716;28;20372;-80
2022/12/05 00:14:43;;;;;;;53.30;26.17;;;;;;;2.10;100.00;101701.13;1036225;28;20300;-80
2022/12/05 00:15:15;;;;;;;54.30;30.13;;;;;;;2.09;100.00;101701.25;1030078;28;20665;-80
2022/12/05 00:15:46;;;;;;;52.42;28.10;;;;;;;2.09;100.00;101704.72;1027834;28;20894;-80
2022/12/05 00:16:20;;;;;;;61.88;29.23;;;;;;;2.09;100.00;101704.72;1031673;28;20379;-80
2022/12/05 00:16:52;;;;;;;51.92;28.08;;;;;;;2.09;100.00;101698.63;1029505;28;20293;-79
2022/12/05 00:17:23;;;;;;;63.28;30.17;;;;;;;2.09;100.00;101699.47;1028614;28;20310;-79
2022/12/05 00:17:55;;;;;;;62.08;30.15;;;;;;;2.09;100.00;101703.88;1031271;28;20309;-80
2022/12/05 00:18:26;;;;;;;56.30;28.90;;;;;;;2.07;100.00;101706.66;1028392;28;20790;-80
2022/12/05 00:18:59;;;;;;;59.75;29.10;;;;;;;2.08;100.00;101704.84;1035395;28;20431;-79
2022/12/05 00:19:31;;;;;;;60.63;31.58;;;;;;;2.10;100.00;101706.38;1031268;28;20309;-80
2022/12/05 00:20:03;;;;;;;56.95;31.77;;;;;;;2.10;100.00;101697.66;1036211;28;20296;-80
2022/12/05 00:20:35;;;;;;;57.53;30.88;;;;;;;2.12;100.00;101707.06;1039456;28;20355;-80
2022/12/05 00:21:12;;;;;;;57.45;30.45;;;;;;;2.12;100.00;101707.06;1041947;28;20365;-80
2022/12/05 00:21:44;;;;;;;53.83;28.48;;;;;;;2.10;100.00;101705.53;1043430;28;20311;-80
2022/12/05 00:22:15;;;;;;;54.45;33.50;;;;;;;2.10;100.00;101701.13;1039259;28;20304;-80
2022/12/05 00:22:47;;;;;;;64.07;34.50;;;;;;;2.11;100.00;101702.78;1030952;28;20302;-79
2022/12/05 00:23:18;;;;;;;60.42;33.47;;;;;;;2.13;100.00;101705.25;1024774;28;20329;-80
2022/12/05 00:23:51;;;;;;;60.45;33.97;;;;;;;2.12;100.00;101703.59;1027592;28;20848;-80
2022/12/05 00:24:23;;;;;;;68.45;36.42;;;;;;;2.11;100.00;101713.28;1029688;28;20377;-80
2022/12/05 00:24:54;;;;;;;63.80;37.28;;;;;;;2.12;100.00;101699.19;1031684;28;20838;-79
2022/12/05 00:25:26;;;;;;;57.00;35.92;;;;;;;2.13;100.00;101711.34;1026795;28;20317;-80
2022/12/05 00:26:02;;;;;;;65.20;38.40;;;;;;;2.14;100.00;101702.50;1023652;28;20326;-80
2022/12/05 00:26:34;;;;;;;65.10;36.58;;;;;;;2.12;100.00;101704.44;1031087;28;20329;-79
2022/12/05 00:27:06;;;;;;;64.78;36.67;;;;;;;2.12;100.00;101699.19;1028379;28;20318;-80
2022/12/05 00:27:37;;;;;;;64.70;36.85;;;;;;;2.13;100.00;101706.09;1029096;28;20381;-80
2022/12/05 00:28:09;;;;;;;64.93;41.13;;;;;;;2.13;100.00;101702.63;1032068;28;20301;-79
2022/12/05 00:28:41;;;;;;;64.93;35.50;;;;;;;2.15;100.00;101704.16;1039751;28;20292;-79
2022/12/05 00:29:12;;;;;;;62.92;37.15;;;;;;;2.16;100.00;101711.06;1036141;28;20468;-80
2022/12/05 00:29:44;;;;;;;61.53;37.40;;;;;;;2.15;100.00;101698.06;1038999;28;20300;-80
2022/12/05 00:30:15;;;;;;;62.47;38.00;;;;;;;2.15;100.00;101698.91;1035090;28;20383;-80
2022/12/05 00:30:47;;;;;;;59.65;36.15;;;;;;;2.15;100.00;101698.91;1036569;28;20672;-79
2022/12/05 00:31:20;;;;;;;60.22;35.42;;;;;;;2.11;100.00;101702.78;1039574;28;20375;-80
2022/12/05 00:31:52;;;;;;;61.13;34.70;;;;;;;2.11;100.00;101701.94;1034961;28;20455;-80
2022/12/05 00:32:24;;;;;;;59.63;35.55;;;;;;;2.12;100.00;101701.81;1031627;28;20297;-80
2022/12/05 00:32:56;;;;;;;64.72;36.83;;;;;;;2.13;100.00;101690.31;1026829;28;20337;-80
2022/12/05 00:33:28;;;;;;;61.15;37.45;;;;;;;2.14;100.00;101702.50;1023662;28;20298;-80
2022/12/05 00:34:01;;;;;;;63.70;36.25;;;;;;;2.14;100.00;101701.66;1028654;28;20442;-80
2022/12/05 00:34:32;;;;;;;61.30;37.60;;;;;;;2.14;100.00;101697.25;1027514;28;20737;-80
2022/12/05 00:35:04;;;;;;;58.28;33.88;;;;;;;2.14;100.00;101701.66;1031918;28;20347;-80
2022/12/05 00:35:36;;;;;;;58.47;36.05;;;;;;;2.12;100.00;101699.19;1027389;28;20306;-80
2022/12/05 00:36:10;;;;;;;57.78;36.05;;;;;;;2.12;100.00;101699.19;1021942;28;20698;-80
2022/12/05 00:36:42;;;;;;;62.03;34.95;;;;;;;2.12;100.00;101704.44;1029837;28;20376;-80
2022/12/05 00:37:13;;;;;;;59.25;36.60;;;;;;;2.15;100.00;101704.16;1028380;28;20357;-80
2022/12/05 00:37:45;;;;;;;63.38;36.00;;;;;;;2.15;100.00;101706.78;1040257;28;20922;-79
2022/12/05 00:38:16;;;;;;;65.70;36.58;;;;;;;2.17;100.00;101702.22;1038724;28;20340;-79
2022/12/05 00:38:48;;;;;;;62.53;36.83;;;;;;;2.17;100.00;101696.94;1027272;28;20302;-80
2022/12/05 00:39:20;;;;;;;67.22;38.45;;;;;;;2.17;100.00;101699.59;1025224;28;20314;-80
2022/12/05 00:39:52;;;;;;;60.58;38.65;;;;;;;2.18;100.00;101698.59;1023691;28;20298;-80
2022/12/05 00:40:23;;;;;;;57.50;34.67;;;;;;;2.17;100.00;101696.94;1025252;28;20736;-80
2022/12/05 00:40:55;;;;;;;57.95;34.90;;;;;;;2.16;100.00;101700.56;1039391;28;20858;-80
2022/12/05 00:41:28;;;;;;;61.15;35.22;;;;;;;2.13;100.00;101700.84;1039936;28;20843;-79
2022/12/05 00:41:59;;;;;;;62.92;36.33;;;;;;;2.17;100.00;101696.94;1042858;28;20400;-80
2022/12/05 00:42:31;;;;;;;62.17;38.50;;;;;;;2.17;100.00;101690.88;1039586;28;20328;-80
2022/12/05 00:43:02;;;;;;;61.45;36.72;;;;;;;2.15;100.00;101704.16;1039280;28;20295;-80
2022/12/05 00:43:34;;;;;;;66.78;39.10;;;;;;;2.16;100.00;101695.28;1039068;28;20332;-80
2022/12/05 00:44:06;;;;;;;61.88;33.55;;;;;;;2.20;100.00;101695.03;1039676;28;20710;-79
2022/12/05 00:44:37;;;;;;;61.42;37.22;;;;;;;2.20;100.00;101695.03;1039178;28;20861;-80
2022/12/05 00:45:10;;;;;;;56.70;35.00;;;;;;;2.20;100.00;101692.41;1035178;28;20375;-80
2022/12/05 00:45:41;;;;;;;66.85;37.15;;;;;;;2.19;100.00;101699.44;1037851;28;20328;-79
2022/12/05 00:46:16;;;;;;;63.17;36.05;;;;;;;2.18;100.00;101695.97;1039520;28;20299;-79
2022/12/05 00:46:48;;;;;;;65.22;38.63;;;;;;;2.18;100.00;101688.09;1035129;28;20687;-80
2022/12/05 00:47:19;;;;;;;60.65;34.58;;;;;;;2.18;100.00;101693.34;1024017;28;20676;-79
2022/12/05 00:47:51;;;;;;;57.33;34.72;;;;;;;2.17;100.00;101694.31;1024334;28;20816;-80
2022/12/05 00:48:22;;;;;;;59.10;35.70;;;;;;;2.18;100.00;101693.34;1027216;28;20341;-80
2022/12/05 00:48:55;;;;;;;65.88;37.17;;;;;;;2.20;100.00;101695.03;1034330;28;20658;-80
2022/12/05 00:49:26;;;;;;;62.22;36.38;;;;;;;2.22;100.00;101698.34;1039352;28;20346;-80
2022/12/05 00:49:58;;;;;;;58.67;35.25;;;;;;;2.22;100.00;101693.09;1039212;28;20404;-80
2022/12/05 00:50:29;;;;;;;59.63;35.15;;;;;;;2.19;100.00;101694.19;1038856;28;20296;-80
2022/12/05 00:51:34;;;;;;;66.00;36.38;;;;;;;2.18;100.00;101693.34;1035418;28;20350;-80
2022/12/05 00:52:06;;;;;;;61.42;34.72;;;;;;;2.20;100.00;101688.00;1030636;28;20797;-80
2022/12/05 00:52:37;;;;;;;58.00;35.05;;;;;;;2.18;100.00;101693.34;1035838;28;20347;-80
2022/12/05 00:53:09;;;;;;;65.28;36.03;;;;;;;2.18;100.00;101693.34;1032992;28;20297;-80
2022/12/05 00:53:41;;;;;;;58.95;36.05;;;;;;;2.20;100.00;101700.31;1035573;28;20348;-80
2022/12/05 00:54:14;;;;;;;61.30;36.13;;;;;;;2.21;100.00;101694.06;1038969;28;20662;-80
2022/12/05 00:54:46;;;;;;;63.95;36.08;;;;;;;2.20;100.00;101692.41;1035640;28;20821;-80
2022/12/05 00:55:17;;;;;;;58.60;33.67;;;;;;;2.19;100.00;101688.94;1026616;28;20385;-80
2022/12/05 00:55:49;;;;;;;59.55;34.67;;;;;;;2.19;100.00;101696.81;1027489;28;20433;-80
2022/12/05 00:56:22;;;;;;;65.70;35.97;;;;;;;2.20;100.00;101692.41;1027856;28;20333;-80
2022/12/05 00:56:56;;;;;;;64.68;36.10;;;;;;;2.19;100.00;101691.56;1027469;28;20384;-80
2022/12/05 00:57:28;;;;;;;58.00;36.08;;;;;;;2.19;100.00;101688.94;1028179;28;20298;-80
2022/12/05 00:57:59;;;;;;;55.97;34.90;;;;;;;2.17;100.00;101686.44;1028188;28;20322;-80
2022/12/05 00:58:32;;;;;;;61.33;35.20;;;;;;;2.20;100.00;101692.41;1027930;28;20317;-80
2022/12/05 00:59:04;;;;;;;57.33;33.45;;;;;;;2.19;100.00;101688.94;1028105;28;20393;-80
2022/12/05 00:59:36;;;;;;;64.72;35.83;;;;;;;2.20;100.00;101692.41;1027369;28;20302;-80
2022/12/05 01:00:08;;;;;;;58.40;33.33;;;;;;;2.20;100.00;101689.78;1031772;28;20328;-80
2022/12/05 01:00:39;;;;;;;62.65;36.25;;;;;;;2.18;100.00;101693.34;1031271;28;20423;-80
2022/12/05 01:01:14;;;;;;;61.28;37.28;;;;;;;2.18;100.00;101690.72;1031557;28;20874;-80
2022/12/05 01:01:47;;;;;;;62.08;35.08;;;;;;;2.17;100.00;101691.69;1031326;28;20383;-79
2022/12/05 01:02:18;;;;;;;60.47;34.97;;;;;;;2.18;100.00;101690.72;1026877;28;20674;-80
2022/12/05 01:02:50;;;;;;;58.85;34.63;;;;;;;2.20;100.00;101689.78;1023778;28;20673;-80
2022/12/05 01:03:22;;;;;;;60.13;36.25;;;;;;;2.22;100.00;101688.66;1028479;28;20290;-79
2022/12/05 01:03:55;;;;;;;68.75;38.65;;;;;;;2.22;100.00;101690.47;1035693;28;20332;-79
2022/12/05 01:04:27;;;;;;;66.47;36.83;;;;;;;2.22;100.00;101693.09;1035530;28;20412;-80
2022/12/05 01:04:58;;;;;;;56.13;34.88;;;;;;;2.22;100.00;101696.56;1034496;28;20390;-80
2022/12/05 01:05:32;;;;;;;56.08;34.38;;;;;;;2.21;100.00;101689.66;1031163;28;20301;-80
2022/12/05 01:06:05;;;;;;;66.20;36.83;;;;;;;2.23;100.00;101695.59;1029472;28;20392;-80
2022/12/05 01:06:37;;;;;;;64.53;37.22;;;;;;;2.22;100.00;101698.34;1034617;28;20862;-80
2022/12/05 01:07:09;;;;;;;57.15;36.20;;;;;;;2.22;100.00;101693.09;1034450;28;20883;-80
2022/12/05 01:07:40;;;;;;;54.22;35.33;;;;;;;2.20;100.00;101689.78;1033968;28;20351;-80
2022/12/05 01:08:12;;;;;;;58.08;33.88;;;;;;;2.20;100.00;101693.25;1035863;28;20393;-80
2022/12/05 01:08:43;;;;;;;57.47;35.38;;;;;;;2.21;100.00;101696.69;1033621;28;20312;-80
2022/12/05 01:09:17;;;;;;;60.75;35.08;;;;;;;2.20;100.00;101689.78;1031603;28;20779;-80
2022/12/05 01:09:48;;;;;;;59.75;35.00;;;;;;;2.19;100.00;101688.94;1030623;28;20429;-80
2022/12/05 01:10:20;;;;;;;59.72;35.13;;;;;;;2.20;100.00;101695.03;1030988;28;21069;-80
2022/12/05 01:10:55;;;;;;;58.65;35.60;;;;;;;2.17;100.00;101691.69;1025722;28;20734;-80
2022/12/05 01:11:27;;;;;;;59.75;35.13;;;;;;;2.20;100.00;101695.03;1031573;28;20752;-79
2022/12/05 01:11:58;;;;;;;62.10;36.28;;;;;;;2.21;100.00;101691.44;1031597;28;20731;-80
2022/12/05 01:12:30;;;;;;;57.60;35.55;;;;;;;2.21;100.00;101692.28;1031712;28;20384;-80
2022/12/05 01:13:01;;;;;;;63.03;36.17;;;;;;;2.18;100.00;101693.34;1035375;28;20296;-80
2022/12/05 01:13:33;;;;;;;55.85;34.90;;;;;;;2.15;100.00;101691.00;1039278;28;20304;-80
2022/12/05 01:14:05;;;;;;;57.80;34.83;;;;;;;2.18;100.00;101692.53;1037348;28;20418;-80
2022/12/05 01:14:37;;;;;;;64.30;35.50;;;;;;;2.17;100.00;101691.69;1036117;28;20345;-80
2022/12/05 01:15:09;;;;;;;55.60;35.08;;;;;;;2.17;100.00;101691.69;1034196;28;20379;-80
2022/12/05 01:15:40;;;;;;;60.10;34.85;;;;;;;2.14;100.00;101686.72;1034022;28;20328;-80
2022/12/05 01:16:24;;;;;;;62.38;36.22;;;;;;;2.16;100.00;101690.03;1030967;28;20305;-80
2022/12/05 01:16:56;;;;;;;52.38;32.33;;;;;;;2.16;100.00;101690.03;1029188;28;20294;-80
2022/12/05 01:17:28;;;;;;;56.45;34.42;;;;;;;2.17;100.00;101696.13;1028572;28;20301;-80
2022/12/05 01:17:59;;;;;;;58.15;36.72;;;;;;;2.18;100.00;101698.59;1030427;28;20325;-79
2022/12/05 01:18:31;;;;;;;63.45;36.22;;;;;;;2.18;100.00;101697.78;1026902;28;20633;-80
2022/12/05 01:19:06;;;;;;;56.42;34.78;;;;;;;2.20;100.00;101700.31;1027245;28;20400;-80
2022/12/05 01:19:37;;;;;;;59.70;36.15;;;;;;;2.19;100.00;101696.81;1026438;28;20790;-80
2022/12/05 01:20:09;;;;;;;68.13;35.35;;;;;;;2.20;100.00;101700.31;1027577;28;20329;-80
2022/12/05 01:20:41;;;;;;;68.13;40.10;;;;;;;2.20;100.00;101700.31;1031880;28;20392;-80
2022/12/05 01:21:13;;;;;;;64.65;36.15;;;;;;;2.22;100.00;101699.19;1031150;28;20360;-80
2022/12/05 01:21:45;;;;;;;60.97;35.95;;;;;;;2.21;100.00;101696.69;1030863;28;20344;-80
2022/12/05 01:22:17;;;;;;;61.33;35.22;;;;;;;2.20;100.00;101700.31;1026910;28;20384;-80
2022/12/05 01:22:48;;;;;;;60.15;35.80;;;;;;;2.21;100.00;101707.22;1027345;28;20808;-80
2022/12/05 01:23:21;;;;;;;62.78;36.05;;;;;;;2.22;100.00;101698.34;1027348;28;20654;-80
2022/12/05 01:23:52;;;;;;;60.58;35.83;;;;;;;2.21;100.00;101702.78;1032192;28;20326;-80
2022/12/05 01:24:25;;;;;;;60.25;38.22;;;;;;;2.23;100.00;101700.00;1028726;28;20355;-80
2022/12/05 01:24:57;;;;;;;64.18;36.53;;;;;;;2.25;100.00;101703.34;1022591;28;20294;-80
2022/12/05 01:25:29;;;;;;;61.00;35.85;;;;;;;2.23;100.00;101700.84;1018548;29;20919;-80
2022/12/05 01:26:05;;;;;;;66.13;36.25;;;;;;;2.25;100.00;101700.69;1024404;28;20331;-80
2022/12/05 01:26:37;;;;;;;61.08;35.60;;;;;;;2.25;100.00;101700.69;1021780;28;20367;-80
2022/12/05 01:27:08;;;;;;;57.80;35.33;;;;;;;2.24;100.00;101697.25;1026791;28;20835;-80
2022/12/05 01:27:40;;;;;;;55.75;33.63;;;;;;;2.25;100.00;101703.34;1031149;28;20293;-80
2022/12/05 01:28:12;;;;;;;61.55;35.63;;;;;;;2.26;100.00;101697.09;1029335;28;20294;-80
2022/12/05 01:28:44;;;;;;;57.58;34.53;;;;;;;2.25;100.00;101698.06;1036039;28;20336;-80
2022/12/05 01:29:19;;;;;;;62.22;35.80;;;;;;;2.27;100.00;101698.75;1038868;28;22011;-80
2022/12/05 01:29:51;;;;;;;65.32;35.38;;;;;;;2.27;100.00;101701.38;1030981;28;20297;-80
2022/12/05 01:30:22;;;;;;;60.58;35.60;;;;;;;2.28;100.00;101698.63;1030772;28;20886;-80
2022/12/05 01:30:54;;;;;;;61.30;35.70;;;;;;;2.29;100.00;101707.34;1031212;28;20452;-80
2022/12/05 01:31:34;;;;;;;63.97;34.72;;;;;;;2.28;100.00;101703.03;1037312;28;20304;-80
2022/12/05 01:32:06;;;;;;;62.35;34.30;;;;;;;2.25;100.00;101698.06;1038965;28;20288;-80
2022/12/05 01:32:38;;;;;;;61.45;33.47;;;;;;;2.24;100.00;101691.16;1040551;28;20094;-80
2022/12/05 01:33:09;;;;;;;63.67;35.20;;;;;;;2.27;100.00;101696.97;1040480;28;20299;-80
2022/12/05 01:33:41;;;;;;;59.53;34.67;;;;;;;2.28;100.00;101703.03;1036283;28;20362;-80
2022/12/05 01:34:14;;;;;;;62.35;34.72;;;;;;;2.29;100.00;101700.28;1032688;28;20301;-80
2022/12/05 01:34:45;;;;;;;55.80;33.28;;;;;;;2.29;100.00;101702.06;1027877;28;20328;-80
2022/12/05 01:35:17;;;;;;;61.53;36.60;;;;;;;2.32;100.00;101701.78;1033868;28;21092;-80
2022/12/05 01:35:48;;;;;;;58.00;35.33;;;;;;;2.30;100.00;101694.03;1039688;28;20300;-80
2022/12/05 01:36:21;;;;;;;63.65;37.22;;;;;;;2.31;100.00;101692.25;1043307;28;20296;-79
2022/12/05 01:36:53;;;;;;;62.55;35.10;;;;;;;2.30;100.00;101701.09;1042609;28;20331;-80
2022/12/05 01:37:24;;;;;;;59.08;36.20;;;;;;;2.29;100.00;101694.19;1036483;28;20306;-80
2022/12/05 01:37:56;;;;;;;59.97;35.47;;;;;;;2.29;100.00;101699.44;1034433;28;20304;-80
2022/12/05 01:38:28;;;;;;;61.35;34.08;;;;;;;2.30;100.00;101696.69;1034934;28;20296;-80
2022/12/05 01:38:59;;;;;;;61.20;33.42;;;;;;;2.30;100.00;101706.38;1034804;28;20800;-80
2022/12/05 01:39:31;;;;;;;59.10;34.25;;;;;;;2.31;100.00;101694.88;1030192;28;20344;-80
2022/12/05 01:40:03;;;;;;;67.15;37.92;;;;;;;2.31;100.00;101700.13;1026701;28;20720;-80
2022/12/05 01:40:35;;;;;;;60.15;34.20;;;;;;;2.33;100.00;101698.19;1029840;28;20381;-80
2022/12/05 01:41:11;;;;;;;64.45;36.97;;;;;;;2.33;100.00;101706.06;1028004;28;20305;-80
2022/12/05 01:41:46;;;;;;;59.70;34.22;;;;;;;2.33;100.00;101700.81;1030863;28;20292;-80
2022/12/05 01:42:18;;;;;;;61.83;32.83;;;;;;;2.32;100.00;101700.00;1028343;28;20796;-80
2022/12/05 01:42:56;;;;;;;61.22;34.80;;;;;;;2.33;100.00;101700.81;1032815;28;20305;-80
2022/12/05 01:43:28;;;;;;;56.55;34.15;;;;;;;2.33;100.00;101696.38;1032960;28;20313;-80
2022/12/05 01:44:11;;;;;;;63.65;34.72;;;;;;;2.33;100.00;101696.38;1038987;28;20781;-80
2022/12/05 01:44:46;;;;;;;65.70;34.33;;;;;;;2.32;100.00;101699.16;1033265;28;20387;-80
2022/12/05 01:45:29;;;;;;;58.08;33.45;;;;;;;2.33;100.00;101699.00;1038345;28;20297;-80
2022/12/05 01:46:01;;;;;;;63.33;37.10;;;;;;;2.34;100.00;101691.97;1038692;28;20319;-80
2022/12/05 01:46:38;;;;;;;56.22;33.03;;;;;;;2.33;100.00;101693.75;1039254;28;20367;-80
2022/12/05 01:47:10;;;;;;;67.68;36.03;;;;;;;2.33;100.00;101703.44;1030604;28;20321;-80
2022/12/05 01:47:41;;;;;;;61.38;35.90;;;;;;;2.34;100.00;101695.41;1035772;28;20825;-80
2022/12/05 01:48:18;;;;;;;61.85;35.10;;;;;;;2.34;100.00;101695.41;1034652;28;20317;-80
2022/12/05 01:48:51;;;;;;;61.13;36.10;;;;;;;2.35;100.00;101697.06;1029786;28;20314;-80
2022/12/05 01:49:35;;;;;;;62.70;34.15;;;;;;;2.32;100.00;101700.00;1026505;28;20302;-80
2022/12/05 01:50:08;;;;;;;56.88;34.63;;;;;;;2.33;100.00;101701.66;1032615;28;20305;-80
2022/12/05 01:50:40;;;;;;;66.30;34.55;;;;;;;2.36;100.00;101695.28;1037520;28;20304;-80
2022/12/05 01:51:11;;;;;;;61.13;35.45;;;;;;;2.36;100.00;101700.53;1032124;28;20309;-80
2022/12/05 01:51:48;;;;;;;64.05;34.95;;;;;;;2.34;100.00;101697.22;1034291;28;20304;-80
2022/12/05 01:52:22;;;;;;;64.47;31.80;;;;;;;2.34;100.00;101691.97;1031434;28;20383;-80
2022/12/05 01:52:54;;;;;;;65.32;34.10;;;;;;;2.34;100.00;101697.22;1035740;28;20367;-79
2022/12/05 01:53:27;;;;;;;67.28;37.05;;;;;;;2.37;100.00;101696.94;1030418;28;20377;-80
2022/12/05 01:53:59;;;;;;;67.13;35.47;;;;;;;2.36;100.00;101708.41;1031710;28;20436;-80
2022/12/05 01:54:31;;;;;;;56.55;35.28;;;;;;;2.38;100.00;101695.97;1030205;28;20305;-80
2022/12/05 01:55:07;;;;;;;59.90;35.67;;;;;;;2.37;100.00;101697.75;1025982;28;20369;-80
2022/12/05 01:55:39;;;;;;;62.20;36.05;;;;;;;2.41;100.00;101700.94;1025923;28;20389;-80
2022/12/05 01:56:11;;;;;;;59.15;34.78;;;;;;;2.40;100.00;101696.66;1027619;28;20384;-80
2022/12/05 01:56:46;;;;;;;66.05;37.58;;;;;;;2.40;100.00;101699.28;1022599;28;20523;-80
2022/12/05 01:57:18;;;;;;;61.30;35.97;;;;;;;2.40;100.00;101696.66;1019667;29;20302;-80
2022/12/05 01:57:49;;;;;;;68.57;36.78;;;;;;;2.40;100.00;101696.66;1028443;28;20281;-80
2022/12/05 01:58:23;;;;;;;62.10;35.33;;;;;;;2.38;100.00;101693.31;1026641;28;20302;-80
2022/12/05 01:58:55;;;;;;;59.35;31.33;;;;;;;2.39;100.00;101700.25;1024568;28;20362;-80
2022/12/05 01:59:29;;;;;;;64.93;34.47;;;;;;;2.38;100.00;101693.31;1028588;28;20448;-79
2022/12/05 02:00:08;;;;;;;57.22;33.28;;;;;;;2.39;100.00;101700.25;1031522;28;20666;-80
2022/12/05 02:00:43;;;;;;;63.95;35.33;;;;;;;2.40;100.00;101688.75;1033184;28;20778;-80
2022/12/05 02:01:15;;;;;;;70.18;36.00;;;;;;;2.40;100.00;101704.53;1030395;28;21132;-80
2022/12/05 02:01:47;;;;;;;62.38;35.33;;;;;;;2.41;100.00;101699.13;1030512;28;20958;-80
2022/12/05 02:02:19;;;;;;;62.83;35.60;;;;;;;2.42;100.00;101697.31;1027989;28;20309;-80
2022/12/05 02:02:56;;;;;;;59.65;35.22;;;;;;;2.43;100.00;101694.56;1030457;28;20699;-80
2022/12/05 02:03:28;;;;;;;61.42;34.92;;;;;;;2.42;100.00;101699.97;1027400;28;20980;-80
2022/12/05 02:03:59;;;;;;;56.33;34.25;;;;;;;2.41;100.00;101696.50;1030658;28;20601;-80
2022/12/05 02:04:34;;;;;;;61.83;36.78;;;;;;;2.40;100.00;101694.00;1030795;28;20372;-80
2022/12/05 02:05:19;;;;;;;62.22;34.47;;;;;;;2.41;100.00;101698.31;1027818;28;20380;-80
2022/12/05 02:05:52;;;;;;;58.50;35.97;;;;;;;2.43;100.00;101706.88;1031894;28;20721;-80
2022/12/05 02:06:25;;;;;;;68.32;37.97;;;;;;;2.43;100.00;101696.34;1034951;28;20375;-80
2022/12/05 02:06:57;;;;;;;62.80;33.03;;;;;;;2.41;100.00;101698.31;1040091;28;20292;-80
2022/12/05 02:07:29;;;;;;;64.47;34.05;;;;;;;2.41;100.00;101687.78;1038845;28;20348;-80
2022/12/05 02:08:10;;;;;;;53.20;32.38;;;;;;;2.40;100.00;101697.47;1037002;28;20865;-80
2022/12/05 02:08:42;;;;;;;;;;;;;;;2.41;100.00;101698.31;1034350;28;21058;-80
2022/12/05 02:09:13;;;;;;;63.03;32.25;;;;;;;2.42;100.00;101700.78;1035101;28;19932;-80
2022/12/05 02:09:46;;;;;;;58.47;33.22;;;;;;;2.43;100.00;101696.34;1030641;28;20106;-80
2022/12/05 02:10:18;;;;;;;55.50;33.38;;;;;;;2.43;100.00;101701.63;1031524;28;20712;-80
2022/12/05 02:10:52;;;;;;;55.10;32.75;;;;;;;2.43;100.00;101701.63;1034964;28;20842;-80
2022/12/05 02:11:25;;;;;;;59.72;35.78;;;;;;;2.43;100.00;101693.72;1026791;28;20310;-80
2022/12/05 02:12:00;;;;;;;63.05;34.45;;;;;;;2.43;100.00;101699.81;1027610;28;20365;-80
2022/12/05 02:12:31;;;;;;;63.95;35.13;;;;;;;2.43;100.00;101696.34;1026596;28;20388;-80
2022/12/05 02:13:15;;;;;;;69.95;35.45;;;;;;;2.45;100.00;101695.25;1025811;28;20333;-80
2022/12/05 02:14:01;;;;;;;63.95;35.03;;;;;;;2.47;100.00;101697.75;1026572;28;20456;-80
2022/12/05 02:14:46;;;;;;;63.45;34.70;;;;;;;2.47;100.00;101701.22;1034582;28;20288;-80
2022/12/05 02:15:35;;;;;;;65.55;34.00;;;;;;;2.47;100.00;101693.31;1038824;28;20308;-80
2022/12/05 02:16:15;;;;;;;59.88;33.00;;;;;;;2.47;100.00;101703.00;1034380;28;20336;-80
2022/12/05 02:17:02;;;;;;;62.53;34.13;;;;;;;2.51;100.00;101698.31;1034552;28;20463;-80
2022/12/05 02:17:49;;;;;;;58.75;33.00;;;;;;;2.47;100.00;101703.00;1035443;28;20311;-80
2022/12/05 02:18:33;;;;;;;62.05;32.63;;;;;;;2.48;100.00;101699.41;1037322;28;20808;-80
2022/12/05 02:19:36;;;;;;;53.67;30.80;;;;;;;2.47;100.00;101697.75;1035321;28;20401;-80
2022/12/05 02:20:25;;;;;;;55.38;31.50;;;;;;;2.47;100.00;101695.97;1038818;28;20379;-80
2022/12/05 02:21:14;;;;;;;58.85;31.30;;;;;;;2.47;100.00;101692.50;1039731;28;20386;-80
2022/12/05 02:22:11;;;;;;;63.47;32.55;;;;;;;2.49;100.00;101695.81;1035706;28;20399;-80
2022/12/05 02:22:55;;;;;;;52.78;29.88;;;;;;;2.49;100.00;101695.81;1037161;28;20301;-80
2022/12/05 02:23:59;;;;;;;55.33;29.67;;;;;;;2.49;100.00;101693.19;1039895;28;20296;-80
2022/12/05 02:25:09;;;;;;;50.08;30.58;;;;;;;2.50;100.00;101694.00;1036695;28;20308;-80
2022/12/05 02:25:58;;;;;;;53.53;26.90;;;;;;;2.50;100.00;101696.66;1043483;28;20295;-80
2022/12/05 02:26:47;;;;;;;58.33;27.40;;;;;;;2.50;100.00;101694.84;1037112;28;20408;-80
2022/12/05 02:27:41;;;;;;;46.55;25.63;;;;;;;2.50;100.00;101697.47;1035170;28;20375;-80
2022/12/05 02:28:49;;;;;;;50.85;25.20;;;;;;;2.51;100.00;101688.59;1037294;28;20722;-80
2022/12/05 02:29:45;;;;;;;46.38;26.75;;;;;;;2.51;100.00;101691.25;1039190;28;20331;-80
2022/12/05 02:30:23;;;;;;;50.25;24.90;;;;;;;2.51;100.00;101687.78;1039031;28;20798;-80
2022/12/05 02:31:06;;;;;;;62.50;29.27;;;;;;;2.52;100.00;101692.06;1035295;28;20324;-80
2022/12/05 02:32:04;;;;;;;50.47;26.05;;;;;;;2.50;100.00;101686.13;1031179;28;20810;-80
2022/12/05 02:33:03;;;;;;;50.33;25.42;;;;;;;2.51;100.00;101685.97;1028914;28;20325;-80
2022/12/05 02:33:41;;;;;;;48.55;25.13;;;;;;;2.53;100.00;101691.91;1038126;28;20801;-80
2022/12/05 02:34:24;;;;;;;50.35;26.67;;;;;;;2.53;100.00;101691.91;1032200;28;20399;-80
2022/12/05 02:35:10;;;;;;;51.45;25.15;;;;;;;2.53;100.00;101691.91;1033939;28;20790;-80
2022/12/05 02:36:02;;;;;;;49.45;28.35;;;;;;;2.55;100.00;101695.22;1027437;28;20389;-80
2022/12/05 02:36:48;;;;;;;46.83;26.92;;;;;;;2.54;100.00;101692.75;1032074;28;20775;-80
2022/12/05 02:37:42;;;;;;;49.83;26.05;;;;;;;2.51;100.00;101688.59;1034896;28;20676;-80